createdAt,value
2017-10-17T00:00:11.887Z,89.2
2017-10-17T00:01:13.510Z,88.7
2017-10-17T00:02:15.136Z,88.7
2017-10-17T00:03:16.762Z,88.1
2017-10-17T00:04:18.388Z,87.8
2017-10-17T00:05:20.014Z,87.9
2017-10-17T00:06:21.642Z,87.6
2017-10-17T00:07:23.271Z,87.4
2017-10-17T00:08:24.890Z,87.6
2017-10-17T00:09:26.517Z,87.6
2017-10-17T00:10:28.141Z,87.5
2017-10-17T00:11:29.769Z,87.9
2017-10-17T00:12:31.394Z,88.1
2017-10-17T00:13:33.027Z,88.0
2017-10-17T00:14:34.651Z,88.0
2017-10-17T00:15:36.279Z,88.9
2017-10-17T00:16:37.905Z,89.6
2017-10-17T00:17:39.531Z,88.4
2017-10-17T00:18:41.156Z,88.6
2017-10-17T00:19:42.784Z,89.0
2017-10-17T00:20:44.411Z,89.0
2017-10-17T00:21:46.038Z,89.1
2017-10-17T00:22:47.661Z,89.8
2017-10-17T00:23:49.288Z,89.6
2017-10-17T00:24:50.911Z,88.9
2017-10-17T00:25:52.537Z,88.7
2017-10-17T00:26:54.165Z,88.6
2017-10-17T00:27:55.793Z,88.1
2017-10-17T00:28:57.418Z,87.9
2017-10-17T00:29:59.043Z,87.7
2017-10-17T00:31:00.669Z,87.8
2017-10-17T00:32:02.303Z,88.2
2017-10-17T00:33:03.922Z,87.8
2017-10-17T00:34:05.553Z,87.8
2017-10-17T00:35:07.174Z,87.6
2017-10-17T00:36:08.799Z,88.2
2017-10-17T00:37:10.425Z,88.2
2017-10-17T00:38:12.051Z,88.5
2017-10-17T00:39:13.678Z,88.8
2017-10-17T00:40:15.305Z,89.3
2017-10-17T00:41:16.935Z,89.5
2017-10-17T00:42:18.565Z,89.8
2017-10-17T00:43:20.192Z,89.6
2017-10-17T00:44:21.818Z,89.6
2017-10-17T00:45:23.441Z,90.0
2017-10-17T00:46:25.070Z,89.5
2017-10-17T00:47:26.704Z,89.5
2017-10-17T00:48:28.324Z,89.1
2017-10-17T00:49:29.952Z,89.1
2017-10-17T00:50:31.575Z,88.2
2017-10-17T00:51:33.204Z,88.2
2017-10-17T00:52:34.830Z,87.8
2017-10-17T00:53:36.453Z,87.6
2017-10-17T00:54:38.079Z,87.6
2017-10-17T00:55:39.703Z,87.7
2017-10-17T00:56:41.333Z,88.0
2017-10-17T00:57:42.956Z,88.0
2017-10-17T00:58:44.583Z,88.9
2017-10-17T00:59:46.208Z,88.6
2017-10-17T01:00:47.837Z,89.0
2017-10-17T01:01:49.462Z,88.2
2017-10-17T01:02:51.089Z,88.7
2017-10-17T01:03:52.714Z,89.1
2017-10-17T01:04:54.348Z,88.8
2017-10-17T01:05:55.972Z,89.7
2017-10-17T01:06:57.596Z,89.6
2017-10-17T01:07:59.227Z,90.2
2017-10-17T01:09:00.846Z,90.5
2017-10-17T01:10:02.473Z,90.3
2017-10-17T01:11:04.098Z,89.8
2017-10-17T01:12:05.725Z,89.7
2017-10-17T01:13:07.349Z,89.2
2017-10-17T01:14:08.991Z,88.5
2017-10-17T01:15:10.609Z,88.9
2017-10-17T01:16:12.235Z,88.7
2017-10-17T01:17:13.862Z,88.8
2017-10-17T01:18:15.495Z,88.9
2017-10-17T01:19:17.120Z,88.7
2017-10-17T01:20:18.745Z,89.0
2017-10-17T01:21:20.370Z,89.1
2017-10-17T01:22:21.994Z,89.3
2017-10-17T01:23:23.622Z,88.5
2017-10-17T01:24:25.248Z,88.7
2017-10-17T01:25:26.884Z,88.8
2017-10-17T01:26:28.498Z,88.7
2017-10-17T01:27:30.123Z,88.5
2017-10-17T01:28:31.760Z,89.7
2017-10-17T01:29:33.427Z,89.0
2017-10-17T01:30:35.060Z,89.5
2017-10-17T01:31:36.680Z,89.7
2017-10-17T01:32:38.307Z,89.3
2017-10-17T01:33:39.940Z,88.3
2017-10-17T01:34:41.558Z,89.0
2017-10-17T01:35:43.184Z,89.4
2017-10-17T01:36:44.809Z,89.4
2017-10-17T01:37:46.436Z,88.9
2017-10-17T01:38:48.064Z,88.9
2017-10-17T01:39:49.691Z,89.0
2017-10-17T01:40:51.313Z,89.7
2017-10-17T01:41:52.942Z,89.2
2017-10-17T01:42:54.573Z,89.9
2017-10-17T01:43:56.196Z,89.8
2017-10-17T01:44:57.824Z,90.1
2017-10-17T01:45:59.449Z,90.3
2017-10-17T01:47:01.077Z,90.5
2017-10-17T01:48:02.699Z,89.9
2017-10-17T01:49:04.323Z,89.3
2017-10-17T01:50:05.959Z,89.7
2017-10-17T01:51:07.575Z,89.7
2017-10-17T01:52:09.203Z,90.1
2017-10-17T01:53:10.830Z,90.5
2017-10-17T01:54:12.462Z,90.5
2017-10-17T01:55:14.118Z,90.9
2017-10-17T01:56:15.705Z,90.7
2017-10-17T01:57:17.345Z,90.5
2017-10-17T01:58:18.969Z,90.2
2017-10-17T01:59:20.597Z,89.8
2017-10-17T02:00:22.221Z,89.7
2017-10-17T02:01:23.859Z,89.8
2017-10-17T02:02:25.478Z,89.9
2017-10-17T02:03:27.105Z,89.9
2017-10-17T02:04:28.734Z,89.9
2017-10-17T02:05:30.358Z,89.6
2017-10-17T02:06:31.983Z,89.6
2017-10-17T02:07:33.610Z,90.1
2017-10-17T02:08:35.236Z,89.4
2017-10-17T02:09:36.862Z,90.3
2017-10-17T02:10:38.487Z,90.5
2017-10-17T02:11:40.110Z,91.1
2017-10-17T02:12:41.736Z,91.2
2017-10-17T02:13:43.359Z,91.1
2017-10-17T02:14:44.984Z,91.2
2017-10-17T02:15:46.617Z,91.1
2017-10-17T02:16:48.240Z,91.5
2017-10-17T02:17:49.865Z,90.6
2017-10-17T02:18:51.490Z,90.5
2017-10-17T02:19:53.121Z,89.9
2017-10-17T02:20:54.748Z,90.6
2017-10-17T02:21:56.370Z,91.1
2017-10-17T02:22:57.999Z,91.0
2017-10-17T02:23:59.623Z,91.1
2017-10-17T02:25:01.248Z,91.1
2017-10-17T02:26:02.871Z,91.2
2017-10-17T02:27:04.499Z,91.8
2017-10-17T02:28:06.128Z,91.1
2017-10-17T02:29:07.752Z,92.1
2017-10-17T02:30:09.379Z,91.2
2017-10-17T02:31:11.003Z,90.9
2017-10-17T02:32:12.629Z,90.8
2017-10-17T02:33:14.251Z,91.2
2017-10-17T02:34:15.878Z,91.1
2017-10-17T02:35:17.503Z,91.3
2017-10-17T02:36:19.128Z,91.3
2017-10-17T02:37:20.756Z,91.2
2017-10-17T02:38:22.379Z,91.2
2017-10-17T02:39:24.007Z,91.2
2017-10-17T02:40:25.630Z,91.3
2017-10-17T02:41:27.257Z,91.6
2017-10-17T02:42:28.885Z,91.6
2017-10-17T02:43:30.510Z,91.6
2017-10-17T02:44:32.136Z,91.9
2017-10-17T02:45:33.761Z,91.4
2017-10-17T02:46:35.387Z,91.3
2017-10-17T02:47:37.012Z,91.5
2017-10-17T02:48:38.642Z,92.0
2017-10-17T02:49:40.263Z,92.2
2017-10-17T02:50:41.890Z,90.9
2017-10-17T02:51:43.526Z,91.9
2017-10-17T02:52:45.140Z,92.0
2017-10-17T02:53:46.767Z,91.8
2017-10-17T02:54:48.394Z,91.8
2017-10-17T02:55:50.015Z,91.6
2017-10-17T02:56:51.643Z,91.7
2017-10-17T02:57:53.269Z,91.6
2017-10-17T02:58:54.896Z,92.0
2017-10-17T02:59:56.519Z,92.2
2017-10-17T03:00:58.144Z,92.4
2017-10-17T03:01:59.772Z,92.2
2017-10-17T03:03:01.424Z,91.9
2017-10-17T03:04:03.052Z,92.5
2017-10-17T03:05:04.681Z,92.2
2017-10-17T03:06:06.310Z,92.3
2017-10-17T03:07:07.931Z,92.3
2017-10-17T03:08:09.558Z,92.0
2017-10-17T03:09:11.182Z,91.2
2017-10-17T03:10:12.808Z,90.7
2017-10-17T03:11:14.435Z,91.0
2017-10-17T03:12:16.061Z,92.0
2017-10-17T03:13:17.689Z,91.4
2017-10-17T03:14:19.314Z,91.4
2017-10-17T03:15:20.939Z,91.7
2017-10-17T03:16:22.566Z,93.0
2017-10-17T03:17:24.191Z,93.0
2017-10-17T03:18:25.814Z,93.6
2017-10-17T03:19:27.441Z,94.4
2017-10-17T03:20:29.067Z,93.8
2017-10-17T03:21:30.692Z,93.8
2017-10-17T03:22:32.314Z,93.6
2017-10-17T03:23:33.942Z,93.6
2017-10-17T03:24:35.566Z,93.1
2017-10-17T03:25:37.194Z,92.7
2017-10-17T03:26:38.820Z,92.7
2017-10-17T03:27:40.443Z,92.9
2017-10-17T03:28:42.073Z,93.1
2017-10-17T03:29:43.696Z,93.0
2017-10-17T03:30:45.321Z,93.5
2017-10-17T03:31:46.945Z,93.8
2017-10-17T03:32:48.572Z,93.7
2017-10-17T03:33:50.200Z,93.9
2017-10-17T03:34:51.837Z,93.0
2017-10-17T03:35:53.449Z,92.6
2017-10-17T03:36:55.074Z,93.7
2017-10-17T03:37:56.699Z,93.6
2017-10-17T03:38:58.326Z,93.3
2017-10-17T03:39:59.956Z,93.0
2017-10-17T03:41:01.578Z,92.8
2017-10-17T03:42:03.218Z,93.0
2017-10-17T03:43:04.838Z,93.7
2017-10-17T03:44:06.458Z,93.1
2017-10-17T03:45:08.084Z,93.9
2017-10-17T03:46:09.709Z,93.5
2017-10-17T03:47:11.339Z,93.0
2017-10-17T03:48:12.962Z,93.0
2017-10-17T03:49:14.591Z,93.1
2017-10-17T03:50:16.218Z,92.8
2017-10-17T03:51:17.840Z,93.4
2017-10-17T03:52:19.466Z,93.7
2017-10-17T03:53:21.089Z,93.7
2017-10-17T03:54:22.717Z,93.9
2017-10-17T03:55:24.344Z,94.0
2017-10-17T03:56:25.971Z,94.2
2017-10-17T03:57:27.594Z,94.4
2017-10-17T03:58:29.218Z,94.8
2017-10-17T03:59:30.845Z,95.4
2017-10-17T04:00:32.471Z,95.2
2017-10-17T04:01:34.095Z,94.4
2017-10-17T04:02:35.724Z,94.5
2017-10-17T04:03:37.352Z,93.4
2017-10-17T04:04:38.980Z,93.3
2017-10-17T04:05:40.602Z,93.5
2017-10-17T04:06:42.227Z,93.7
2017-10-17T04:07:43.853Z,94.3
2017-10-17T04:08:45.481Z,94.4
2017-10-17T04:09:47.106Z,94.6
2017-10-17T04:10:48.736Z,94.0
2017-10-17T04:11:51.044Z,94.4
2017-10-17T04:12:52.675Z,94.4
2017-10-17T04:13:54.296Z,94.2
2017-10-17T04:14:55.926Z,94.7
2017-10-17T04:15:57.546Z,95.0
2017-10-17T04:16:59.171Z,94.9
2017-10-17T04:18:00.803Z,94.4
2017-10-17T04:19:02.426Z,94.4
2017-10-17T04:20:04.049Z,95.3
2017-10-17T04:21:05.676Z,94.8
2017-10-17T04:22:07.305Z,94.4
2017-10-17T04:23:08.929Z,94.7
2017-10-17T04:24:10.558Z,95.0
2017-10-17T04:25:12.185Z,95.2
2017-10-17T04:26:13.817Z,94.2
2017-10-17T04:27:15.439Z,94.2
2017-10-17T04:28:17.065Z,94.3
2017-10-17T04:29:18.689Z,94.6
2017-10-17T04:30:20.314Z,94.5
2017-10-17T04:31:21.940Z,93.4
2017-10-17T04:32:23.567Z,93.5
2017-10-17T04:33:25.192Z,93.6
2017-10-17T04:34:26.819Z,93.9
2017-10-17T04:35:28.440Z,94.5
2017-10-17T04:36:30.069Z,94.9
2017-10-17T04:37:31.698Z,95.1
2017-10-17T04:38:33.329Z,95.1
2017-10-17T04:39:34.959Z,94.6
2017-10-17T04:40:36.582Z,94.4
2017-10-17T04:41:38.209Z,95.1
2017-10-17T04:42:39.835Z,95.3
2017-10-17T04:43:41.460Z,95.1
2017-10-17T04:44:43.084Z,94.9
2017-10-17T04:45:44.708Z,94.6
2017-10-17T04:46:46.359Z,95.2
2017-10-17T04:47:47.983Z,94.8
2017-10-17T04:48:49.585Z,96.3
2017-10-17T04:49:51.211Z,96.2
2017-10-17T04:50:52.844Z,96.4
2017-10-17T04:51:54.463Z,96.4
2017-10-17T04:52:56.089Z,96.4
2017-10-17T04:53:57.715Z,96.2
2017-10-17T04:54:59.343Z,95.4
2017-10-17T04:56:00.962Z,95.3
2017-10-17T04:57:02.592Z,94.7
2017-10-17T04:58:04.220Z,95.1
2017-10-17T04:59:05.845Z,94.5
2017-10-17T05:00:07.473Z,94.5
2017-10-17T05:01:09.098Z,94.8
2017-10-17T05:02:10.723Z,94.7
2017-10-17T05:03:13.303Z,94.8
2017-10-17T05:04:14.927Z,95.0
2017-10-17T05:05:16.557Z,94.8
2017-10-17T05:06:18.203Z,94.6
2017-10-17T05:07:19.827Z,94.6
2017-10-17T05:08:23.609Z,95.1
2017-10-17T05:09:25.232Z,95.1
2017-10-17T05:10:26.863Z,95.5
2017-10-17T05:11:28.482Z,95.9
2017-10-17T05:12:30.112Z,95.0
2017-10-17T05:13:31.735Z,95.1
2017-10-17T05:14:33.360Z,95.6
2017-10-17T05:15:34.988Z,96.7
2017-10-17T05:16:36.614Z,96.5
2017-10-17T05:17:38.238Z,95.8
2017-10-17T05:18:39.876Z,96.2
2017-10-17T05:19:41.502Z,96.6
2017-10-17T05:20:43.127Z,96.1
2017-10-17T05:21:44.752Z,95.5
2017-10-17T05:22:46.379Z,94.7
2017-10-17T05:23:48.004Z,95.6
2017-10-17T05:24:49.628Z,95.6
2017-10-17T05:25:51.261Z,95.4
2017-10-17T05:26:52.884Z,95.3
2017-10-17T05:27:54.513Z,96.0
2017-10-17T05:28:56.140Z,95.2
2017-10-17T05:29:57.760Z,95.8
2017-10-17T05:30:59.387Z,96.2
2017-10-17T05:32:01.030Z,96.4
2017-10-17T05:33:02.649Z,96.2
2017-10-17T05:34:04.273Z,96.4
2017-10-17T05:35:05.896Z,97.4
2017-10-17T05:36:07.525Z,96.2
2017-10-17T05:37:09.159Z,95.4
2017-10-17T05:38:10.780Z,95.3
2017-10-17T05:39:12.408Z,94.9
2017-10-17T05:40:14.035Z,94.8
2017-10-17T05:41:15.663Z,94.6
2017-10-17T05:42:17.300Z,94.4
2017-10-17T05:43:18.929Z,94.4
2017-10-17T05:44:20.556Z,94.4
2017-10-17T05:45:22.180Z,93.9
2017-10-17T05:46:23.808Z,93.4
2017-10-17T05:47:25.437Z,93.5
2017-10-17T05:48:27.064Z,93.5
2017-10-17T05:49:28.692Z,93.6
2017-10-17T05:50:30.318Z,93.5
2017-10-17T05:51:31.949Z,93.7
2017-10-17T05:52:33.576Z,93.1
2017-10-17T05:53:35.195Z,93.5
2017-10-17T05:54:36.825Z,93.5
2017-10-17T05:55:38.448Z,92.8
2017-10-17T05:56:40.089Z,92.8
2017-10-17T05:57:41.722Z,93.1
2017-10-17T05:58:43.350Z,92.9
2017-10-17T05:59:44.975Z,93.1
2017-10-17T06:00:46.613Z,93.9
2017-10-17T06:01:48.239Z,94.2
2017-10-17T06:02:49.865Z,94.3
2017-10-17T06:03:51.490Z,95.0
2017-10-17T06:04:53.118Z,95.0
2017-10-17T06:05:54.748Z,94.7
2017-10-17T06:06:56.370Z,96.0
2017-10-17T06:07:57.992Z,95.9
2017-10-17T06:08:59.645Z,96.4
2017-10-17T06:10:01.275Z,96.0
2017-10-17T06:11:02.903Z,96.2
2017-10-17T06:12:04.535Z,97.2
2017-10-17T06:13:06.163Z,97.1
2017-10-17T06:14:07.792Z,96.8
2017-10-17T06:15:09.418Z,97.6
2017-10-17T06:16:11.049Z,97.5
2017-10-17T06:17:12.682Z,97.0
2017-10-17T06:18:14.316Z,96.7
2017-10-17T06:19:15.944Z,96.6
2017-10-17T06:20:17.574Z,97.7
2017-10-17T06:21:19.201Z,97.8
2017-10-17T06:22:20.829Z,97.8
2017-10-17T06:23:22.452Z,97.8
2017-10-17T06:24:24.086Z,98.1
2017-10-17T06:25:25.720Z,97.7
2017-10-17T06:26:27.349Z,96.7
2017-10-17T06:27:28.990Z,96.7
2017-10-17T06:28:30.615Z,97.0
2017-10-17T06:29:32.242Z,97.2
2017-10-17T06:30:33.870Z,96.9
2017-10-17T06:31:35.497Z,96.2
2017-10-17T06:32:37.126Z,95.9
2017-10-17T06:33:38.755Z,96.5
2017-10-17T06:34:40.387Z,96.3
2017-10-17T06:35:42.012Z,96.5
2017-10-17T06:36:43.640Z,96.5
2017-10-17T06:37:45.267Z,96.8
2017-10-17T06:38:46.896Z,97.3
2017-10-17T06:39:48.530Z,97.4
2017-10-17T06:40:50.155Z,97.8
2017-10-17T06:41:51.789Z,97.3
2017-10-17T06:42:53.419Z,97.0
2017-10-17T06:43:55.037Z,97.2
2017-10-17T06:44:56.673Z,97.3
2017-10-17T06:45:58.304Z,96.7
2017-10-17T06:46:59.934Z,96.7
2017-10-17T06:48:01.562Z,96.5
2017-10-17T06:49:03.191Z,96.6
2017-10-17T06:50:04.818Z,96.3
2017-10-17T06:51:06.442Z,96.4
2017-10-17T06:52:08.071Z,96.5
2017-10-17T06:53:09.702Z,96.6
2017-10-17T06:54:11.328Z,96.1
2017-10-17T06:55:12.956Z,96.5
2017-10-17T06:56:14.588Z,95.8
2017-10-17T06:57:16.232Z,96.3
2017-10-17T06:58:17.858Z,96.5
2017-10-17T06:59:19.488Z,96.5
2017-10-17T07:00:21.118Z,96.6
2017-10-17T07:01:22.745Z,96.1
2017-10-17T07:02:24.376Z,96.3
2017-10-17T07:03:26.006Z,96.2
2017-10-17T07:04:27.647Z,96.4
2017-10-17T07:05:29.274Z,96.0
2017-10-17T07:06:30.905Z,95.7
2017-10-17T07:07:32.533Z,95.9
2017-10-17T07:08:34.164Z,96.0
2017-10-17T07:09:35.794Z,96.2
2017-10-17T07:10:37.424Z,96.2
2017-10-17T07:11:39.057Z,96.3
2017-10-17T07:12:40.689Z,96.7
2017-10-17T07:13:42.321Z,96.5
2017-10-17T07:14:43.945Z,96.9
2017-10-17T07:15:45.576Z,96.9
2017-10-17T07:16:47.208Z,96.8
2017-10-17T07:17:48.838Z,96.7
2017-10-17T07:18:50.470Z,97.3
2017-10-17T07:19:52.107Z,97.0
2017-10-17T07:20:53.728Z,97.3
2017-10-17T07:21:55.361Z,97.9
2017-10-17T07:22:56.991Z,97.7
2017-10-17T07:23:58.623Z,97.1
2017-10-17T07:25:00.255Z,97.9
2017-10-17T07:26:01.882Z,97.9
2017-10-17T07:27:03.515Z,99.0
2017-10-17T07:28:05.140Z,99.1
2017-10-17T07:29:06.769Z,99.5
2017-10-17T07:30:08.398Z,99.6
2017-10-17T07:31:10.026Z,99.7
2017-10-17T07:32:11.660Z,100.0
2017-10-17T07:33:13.285Z,99.5
2017-10-17T07:34:14.921Z,99.9
2017-10-17T07:35:16.552Z,100.0
2017-10-17T07:36:18.183Z,100.0
2017-10-17T07:37:19.812Z,100.0
2017-10-17T07:38:21.443Z,100.0
2017-10-17T07:39:23.073Z,99.8
2017-10-17T07:40:24.701Z,100.0
2017-10-17T07:41:26.334Z,100.0
2017-10-17T07:42:27.966Z,100.0
2017-10-17T07:43:29.604Z,99.8
2017-10-17T07:44:31.234Z,100.0
2017-10-17T07:45:32.869Z,100.0
2017-10-17T07:46:34.510Z,100.0
2017-10-17T07:47:36.136Z,100.0
2017-10-17T07:48:37.769Z,100.0
2017-10-17T07:49:39.400Z,100.0
2017-10-17T07:50:41.042Z,100.0
2017-10-17T07:51:42.673Z,100.0
2017-10-17T07:52:44.303Z,100.0
2017-10-17T07:53:45.936Z,100.0
2017-10-17T07:54:47.565Z,100.0
2017-10-17T07:55:49.190Z,100.0
2017-10-17T07:56:50.821Z,100.0
2017-10-17T07:57:52.455Z,100.0
2017-10-17T07:58:54.090Z,100.0
2017-10-17T07:59:55.719Z,99.8
2017-10-17T08:00:57.349Z,100.0
2017-10-17T08:01:58.979Z,100.0
2017-10-17T08:03:00.606Z,100.0
2017-10-17T08:04:02.237Z,100.0
2017-10-17T08:05:03.895Z,100.0
2017-10-17T08:06:05.525Z,100.0
2017-10-17T08:07:07.160Z,100.0
2017-10-17T08:08:08.793Z,100.0
2017-10-17T08:09:10.423Z,100.0
2017-10-17T08:10:12.058Z,100.0
2017-10-17T08:11:13.680Z,100.0
2017-10-17T08:12:15.316Z,100.0
2017-10-17T08:13:16.947Z,100.0
2017-10-17T08:14:18.580Z,100.0
2017-10-17T08:15:20.211Z,100.0
2017-10-17T08:16:21.840Z,100.0
2017-10-17T08:17:23.473Z,100.0
2017-10-17T08:18:25.117Z,98.0
2017-10-17T08:19:26.749Z,98.2
2017-10-17T08:20:28.380Z,97.8
2017-10-17T08:21:30.013Z,96.9
2017-10-17T08:22:31.644Z,96.1
2017-10-17T08:23:33.310Z,96.9
2017-10-17T08:24:34.942Z,97.4
2017-10-17T08:25:36.569Z,97.8
2017-10-17T08:26:38.199Z,96.6
2017-10-17T08:27:39.829Z,97.1
2017-10-17T08:28:41.472Z,95.5
2017-10-17T08:29:43.128Z,95.2
2017-10-17T08:30:44.745Z,95.3
2017-10-17T08:31:46.373Z,95.2
2017-10-17T08:32:48.006Z,95.6
2017-10-17T08:33:49.634Z,94.9
2017-10-17T08:34:51.266Z,94.4
2017-10-17T08:35:52.895Z,94.6
2017-10-17T08:36:54.529Z,94.7
2017-10-17T08:37:56.156Z,94.5
2017-10-17T08:38:57.792Z,95.4
2017-10-17T08:39:59.420Z,95.6
2017-10-17T08:41:01.052Z,94.9
2017-10-17T08:42:02.685Z,95.2
2017-10-17T08:43:04.358Z,96.3
2017-10-17T08:44:05.987Z,95.3
2017-10-17T08:45:07.614Z,95.0
2017-10-17T08:46:09.250Z,95.0
2017-10-17T08:47:10.879Z,96.0
2017-10-17T08:48:12.530Z,96.3
2017-10-17T08:49:14.160Z,95.1
2017-10-17T08:50:15.797Z,93.9
2017-10-17T08:51:17.434Z,94.1
2017-10-17T08:52:19.066Z,94.4
2017-10-17T08:53:20.696Z,94.0
2017-10-17T08:54:22.337Z,94.4
2017-10-17T08:55:23.975Z,94.1
2017-10-17T08:56:25.604Z,93.7
2017-10-17T08:57:27.239Z,94.5
2017-10-17T08:58:28.877Z,94.4
2017-10-17T08:59:30.507Z,94.3
2017-10-17T09:00:32.138Z,93.6
2017-10-17T09:01:33.773Z,94.1
2017-10-17T09:02:35.403Z,94.2
2017-10-17T09:03:37.037Z,93.7
2017-10-17T09:04:38.673Z,93.6
2017-10-17T09:05:40.312Z,94.0
2017-10-17T09:06:41.943Z,93.1
2017-10-17T09:07:43.581Z,93.3
2017-10-17T09:08:45.216Z,93.5
2017-10-17T09:09:46.843Z,93.9
2017-10-17T09:10:48.480Z,94.0
2017-10-17T09:11:50.110Z,94.4
2017-10-17T09:12:51.746Z,93.3
2017-10-17T09:13:53.378Z,93.1
2017-10-17T09:14:55.014Z,93.0
2017-10-17T09:15:56.651Z,93.6
2017-10-17T09:16:58.286Z,93.2
2017-10-17T09:17:59.919Z,92.7
2017-10-17T09:19:01.555Z,92.7
2017-10-17T09:20:03.196Z,93.1
2017-10-17T09:21:04.837Z,93.7
2017-10-17T09:22:06.469Z,93.9
2017-10-17T09:23:08.104Z,93.9
2017-10-17T09:24:09.737Z,93.7
2017-10-17T09:25:11.384Z,92.2
2017-10-17T09:26:13.023Z,92.3
2017-10-17T09:27:14.655Z,91.1
2017-10-17T09:28:16.287Z,91.8
2017-10-17T09:29:17.915Z,91.3
2017-10-17T09:30:19.548Z,91.3
2017-10-17T09:31:21.181Z,91.4
2017-10-17T09:32:22.818Z,92.2
2017-10-17T09:33:24.449Z,92.0
2017-10-17T09:34:26.087Z,92.5
2017-10-17T09:35:27.719Z,92.2
2017-10-17T09:36:29.349Z,92.1
2017-10-17T09:37:30.979Z,91.9
2017-10-17T09:38:32.611Z,91.6
2017-10-17T09:39:34.243Z,91.3
2017-10-17T09:40:35.885Z,91.6
2017-10-17T09:41:37.526Z,91.6
2017-10-17T09:42:39.158Z,91.2
2017-10-17T09:43:40.794Z,91.4
2017-10-17T09:44:42.426Z,91.0
2017-10-17T09:45:44.057Z,89.7
2017-10-17T09:46:45.696Z,88.9
2017-10-17T09:47:47.334Z,88.7
2017-10-17T09:48:48.970Z,88.4
2017-10-17T09:49:50.598Z,88.6
2017-10-17T09:50:52.244Z,88.8
2017-10-17T09:51:53.880Z,88.6
2017-10-17T09:52:55.512Z,88.9
2017-10-17T09:53:57.146Z,88.1
2017-10-17T09:54:58.778Z,88.6
2017-10-17T09:56:00.414Z,88.4
2017-10-17T09:57:02.051Z,88.1
2017-10-17T09:58:03.684Z,88.9
2017-10-17T09:59:05.323Z,88.7
2017-10-17T10:00:06.948Z,88.9
2017-10-17T10:01:08.582Z,88.4
2017-10-17T10:02:10.223Z,88.1
2017-10-17T10:03:11.856Z,87.6
2017-10-17T10:04:16.582Z,88.5
2017-10-17T10:05:21.238Z,88.5
2017-10-17T10:06:22.865Z,88.4
2017-10-17T10:07:24.498Z,88.8
2017-10-17T10:08:26.131Z,89.1
2017-10-17T10:09:27.767Z,88.0
2017-10-17T10:10:29.403Z,88.0
2017-10-17T10:11:31.041Z,88.3
2017-10-17T10:12:32.670Z,88.3
2017-10-17T10:13:34.303Z,87.8
2017-10-17T10:14:35.934Z,88.0
2017-10-17T10:15:37.569Z,87.7
2017-10-17T10:16:39.207Z,87.6
2017-10-17T10:17:40.838Z,87.8
2017-10-17T10:18:42.469Z,88.6
2017-10-17T10:19:44.104Z,88.2
2017-10-17T10:20:45.739Z,88.8
2017-10-17T10:21:47.371Z,87.8
2017-10-17T10:22:49.006Z,87.8
2017-10-17T10:23:50.648Z,88.2
2017-10-17T10:24:52.280Z,88.2
2017-10-17T10:25:53.912Z,87.9
2017-10-17T10:26:55.596Z,87.4
2017-10-17T10:27:57.231Z,88.1
2017-10-17T10:28:58.860Z,87.9
2017-10-17T10:30:00.497Z,88.5
2017-10-17T10:31:02.849Z,88.2
2017-10-17T10:32:04.487Z,88.0
2017-10-17T10:33:06.119Z,87.4
2017-10-17T10:34:07.758Z,87.9
2017-10-17T10:35:09.391Z,87.8
2017-10-17T10:36:11.028Z,87.6
2017-10-17T10:37:12.668Z,87.0
2017-10-17T10:38:15.858Z,86.9
2017-10-17T10:39:17.492Z,86.8
2017-10-17T10:40:19.127Z,87.2
2017-10-17T10:41:20.759Z,86.8
2017-10-17T10:42:22.399Z,86.6
2017-10-17T10:43:26.088Z,87.0
2017-10-17T10:44:27.723Z,86.3
2017-10-17T10:45:29.359Z,86.6
2017-10-17T10:46:32.776Z,85.8
2017-10-17T10:47:34.371Z,85.6
2017-10-17T10:48:36.004Z,86.3
2017-10-17T10:49:38.574Z,85.3
2017-10-17T10:50:40.191Z,86.5
2017-10-17T10:51:41.835Z,86.2
2017-10-17T10:52:43.476Z,85.7
2017-10-17T10:53:45.113Z,85.3
2017-10-17T10:54:46.749Z,84.1
2017-10-17T10:55:48.386Z,84.2
2017-10-17T10:56:50.017Z,84.3
2017-10-17T10:57:51.658Z,84.2
2017-10-17T10:58:53.292Z,83.4
2017-10-17T10:59:54.927Z,83.6
2017-10-17T11:00:56.564Z,83.0
2017-10-17T11:01:59.735Z,83.0
2017-10-17T11:03:01.368Z,82.0
2017-10-17T11:04:03.003Z,81.7
2017-10-17T11:05:04.639Z,82.1
2017-10-17T11:06:06.276Z,81.7
2017-10-17T11:07:07.911Z,81.5
2017-10-17T11:08:09.547Z,81.7
2017-10-17T11:09:11.180Z,81.1
2017-10-17T11:10:12.813Z,81.9
2017-10-17T11:11:14.448Z,81.3
2017-10-17T11:12:16.086Z,81.9
2017-10-17T11:13:17.751Z,82.2
2017-10-17T11:14:19.386Z,82.8
2017-10-17T11:15:21.024Z,83.4
2017-10-17T11:16:22.657Z,83.7
2017-10-17T11:17:24.296Z,83.5
2017-10-17T11:18:25.925Z,83.0
2017-10-17T11:19:27.564Z,83.9
2017-10-17T11:20:29.198Z,83.8
2017-10-17T11:21:31.540Z,84.4
2017-10-17T11:22:33.183Z,84.1
2017-10-17T11:23:34.816Z,83.7
2017-10-17T11:24:36.447Z,83.8
2017-10-17T11:25:38.096Z,84.0
2017-10-17T11:26:39.731Z,83.5
2017-10-17T11:27:41.381Z,82.0
2017-10-17T11:28:43.017Z,81.7
2017-10-17T11:29:46.104Z,81.6
2017-10-17T11:30:48.388Z,81.4
2017-10-17T11:31:50.655Z,81.6
2017-10-17T11:32:52.295Z,81.0
2017-10-17T11:33:53.955Z,80.4
2017-10-17T11:34:57.141Z,79.2
2017-10-17T11:35:58.779Z,78.2
2017-10-17T11:37:00.416Z,77.5
2017-10-17T11:38:02.056Z,77.7
2017-10-17T11:39:04.218Z,77.0
2017-10-17T11:40:06.648Z,76.1
2017-10-17T11:41:08.288Z,75.1
2017-10-17T11:42:10.684Z,74.1
2017-10-17T11:43:12.318Z,74.7
2017-10-17T11:44:13.960Z,74.3
2017-10-17T11:45:15.607Z,73.5
2017-10-17T11:46:17.250Z,73.6
2017-10-17T11:47:18.888Z,72.4
2017-10-17T11:48:20.526Z,72.1
2017-10-17T11:49:22.161Z,71.5
2017-10-17T11:50:23.799Z,71.1
2017-10-17T11:51:26.141Z,70.9
2017-10-17T11:52:27.781Z,70.2
2017-10-17T11:53:29.419Z,69.0
2017-10-17T11:54:31.057Z,69.0
2017-10-17T11:55:32.696Z,68.2
2017-10-17T11:56:34.336Z,68.5
2017-10-17T11:57:35.972Z,68.8
2017-10-17T11:58:37.639Z,68.8
2017-10-17T11:59:39.273Z,67.9
2017-10-17T12:00:40.912Z,67.5
2017-10-17T12:01:42.583Z,67.4
2017-10-17T12:02:44.221Z,66.7
2017-10-17T12:03:45.858Z,66.9
2017-10-17T12:04:47.495Z,66.9
2017-10-17T12:05:49.136Z,66.9
2017-10-17T12:06:50.779Z,68.6
2017-10-17T12:07:52.417Z,69.2
2017-10-17T12:08:54.066Z,70.1
2017-10-17T12:09:55.766Z,70.3
2017-10-17T12:10:57.406Z,69.7
2017-10-17T12:11:59.051Z,69.0
2017-10-17T12:13:00.692Z,68.8
2017-10-17T12:14:02.330Z,68.5
2017-10-17T12:15:03.979Z,67.4
2017-10-17T12:16:05.706Z,67.4
2017-10-17T12:17:07.361Z,67.1
2017-10-17T12:18:09.056Z,66.9
2017-10-17T12:19:10.805Z,66.4
2017-10-17T12:20:12.445Z,65.5
2017-10-17T12:21:14.083Z,65.1
2017-10-17T12:22:15.751Z,66.4
2017-10-17T12:23:17.431Z,64.9
2017-10-17T12:24:19.089Z,64.8
2017-10-17T12:25:20.728Z,64.9
2017-10-17T12:26:22.371Z,63.6
2017-10-17T12:27:24.011Z,64.8
2017-10-17T12:28:25.648Z,64.5
2017-10-17T12:29:27.283Z,64.5
2017-10-17T12:30:28.919Z,65.0
2017-10-17T12:31:30.557Z,64.9
2017-10-17T12:32:32.193Z,65.0
2017-10-17T12:33:33.829Z,65.2
2017-10-17T12:34:35.473Z,64.4
2017-10-17T12:35:37.104Z,64.1
2017-10-17T12:36:38.742Z,63.6
2017-10-17T12:37:40.438Z,64.3
2017-10-17T12:38:42.080Z,63.6
2017-10-17T12:39:43.721Z,64.1
2017-10-17T12:40:45.356Z,64.1
2017-10-17T12:41:46.996Z,63.9
2017-10-17T12:42:48.634Z,64.3
2017-10-17T12:43:50.273Z,63.8
2017-10-17T12:44:51.910Z,64.2
2017-10-17T12:45:53.545Z,63.8
2017-10-17T12:46:55.187Z,64.1
2017-10-17T12:47:56.827Z,64.5
2017-10-17T12:48:58.467Z,64.8
2017-10-17T12:50:00.107Z,64.8
2017-10-17T12:51:01.747Z,64.8
2017-10-17T12:52:03.392Z,65.2
2017-10-17T12:53:05.216Z,64.4
2017-10-17T12:54:06.855Z,64.3
2017-10-17T12:55:08.487Z,65.0
2017-10-17T12:56:10.135Z,65.3
2017-10-17T12:57:11.771Z,66.6
2017-10-17T12:58:13.407Z,66.5
2017-10-17T12:59:15.046Z,66.1
2017-10-17T13:00:16.701Z,65.9
2017-10-17T13:01:18.337Z,66.1
2017-10-17T13:02:19.977Z,66.5
2017-10-17T13:03:21.613Z,66.9
2017-10-17T13:04:23.281Z,66.9
2017-10-17T13:05:24.914Z,67.5
2017-10-17T13:06:26.553Z,68.5
2017-10-17T13:07:28.187Z,68.3
2017-10-17T13:08:29.825Z,68.3
2017-10-17T13:09:31.464Z,68.8
2017-10-17T13:10:33.102Z,69.2
2017-10-17T13:11:34.750Z,69.2
2017-10-17T13:12:36.378Z,69.5
2017-10-17T13:13:38.014Z,70.5
2017-10-17T13:14:39.652Z,70.3
2017-10-17T13:15:41.799Z,70.4
2017-10-17T13:16:43.434Z,70.6
2017-10-17T13:17:45.078Z,70.7
2017-10-17T13:18:46.713Z,70.2
2017-10-17T13:19:48.385Z,70.7
2017-10-17T13:20:50.028Z,70.7
2017-10-17T13:21:51.661Z,70.1
2017-10-17T13:22:53.297Z,69.2
2017-10-17T13:23:54.937Z,69.5
2017-10-17T13:24:56.576Z,69.2
2017-10-17T13:25:58.209Z,68.6
2017-10-17T13:26:59.843Z,67.9
2017-10-17T13:28:01.479Z,68.1
2017-10-17T13:29:03.126Z,68.1
2017-10-17T13:30:04.770Z,68.0
2017-10-17T13:31:06.404Z,66.4
2017-10-17T13:32:08.043Z,66.7
2017-10-17T13:33:09.677Z,67.7
2017-10-17T13:34:11.313Z,68.2
2017-10-17T13:35:12.950Z,67.9
2017-10-17T13:36:14.589Z,67.9
2017-10-17T13:37:16.230Z,69.1
2017-10-17T13:38:17.870Z,68.4
2017-10-17T13:39:19.500Z,68.4